sensor_id;sensor_type;location;lat;lon;timestamp;P1;durP1;ratioP1;P2;durP2;ratioP2
9117;SDS011;4594;50.994;7.126;2022-12-24T00:01:10;12.10;;;3.53;;
9117;SDS011;4594;50.994;7.126;2022-12-24T00:03:36;7.43;;;3.33;;
9117;SDS011;4594;50.994;7.126;2022-12-24T00:06:08;14.10;;;3.63;;
9117;SDS011;4594;50.994;7.126;2022-12-24T00:08:40;13.40;;;3.70;;
9117;SDS011;4594;50.994;7.126;2022-12-24T00:11:06;10.80;;;3.43;;
9117;SDS011;4594;50.994;7.126;2022-12-24T00:13:32;16.30;;;3.67;;
9117;SDS011;4594;50.994;7.126;2022-12-24T00:15:58;17.07;;;4.10;;
9117;SDS011;4594;50.994;7.126;2022-12-24T00:18:24;18.10;;;4.00;;
9117;SDS011;4594;50.994;7.126;2022-12-24T00:20:50;11.03;;;3.93;;
9117;SDS011;4594;50.994;7.126;2022-12-24T00:23:16;9.40;;;3.20;;
9117;SDS011;4594;50.994;7.126;2022-12-24T00:25:42;16.07;;;3.90;;
9117;SDS011;4594;50.994;7.126;2022-12-24T00:28:08;12.00;;;3.00;;
9117;SDS011;4594;50.994;7.126;2022-12-24T00:30:36;12.77;;;4.23;;
9117;SDS011;4594;50.994;7.126;2022-12-24T00:33:03;14.80;;;3.30;;
9117;SDS011;4594;50.994;7.126;2022-12-24T00:35:29;14.00;;;4.00;;
9117;SDS011;4594;50.994;7.126;2022-12-24T00:37:58;10.93;;;3.83;;
9117;SDS011;4594;50.994;7.126;2022-12-24T00:40:23;11.23;;;3.27;;
9117;SDS011;4594;50.994;7.126;2022-12-24T00:42:49;13.07;;;4.03;;
9117;SDS011;4594;50.994;7.126;2022-12-24T00:45:14;11.60;;;3.47;;
9117;SDS011;4594;50.994;7.126;2022-12-24T00:47:40;14.83;;;3.53;;
9117;SDS011;4594;50.994;7.126;2022-12-24T00:50:06;14.07;;;3.83;;
9117;SDS011;4594;50.994;7.126;2022-12-24T00:52:33;13.97;;;3.27;;
9117;SDS011;4594;50.994;7.126;2022-12-24T00:54:59;11.00;;;3.30;;
9117;SDS011;4594;50.994;7.126;2022-12-24T00:57:25;12.13;;;3.70;;
9117;SDS011;4594;50.994;7.126;2022-12-24T00:59:51;14.93;;;4.43;;
9117;SDS011;4594;50.994;7.126;2022-12-24T01:02:16;10.73;;;3.20;;
9117;SDS011;4594;50.994;7.126;2022-12-24T01:04:42;12.23;;;3.60;;
9117;SDS011;4594;50.994;7.126;2022-12-24T01:07:26;13.03;;;3.37;;
9117;SDS011;4594;50.994;7.126;2022-12-24T01:09:52;15.67;;;3.57;;
9117;SDS011;4594;50.994;7.126;2022-12-24T01:12:17;22.93;;;4.40;;
9117;SDS011;4594;50.994;7.126;2022-12-24T01:14:43;15.80;;;3.73;;
9117;SDS011;4594;50.994;7.126;2022-12-24T01:17:09;14.33;;;3.80;;
9117;SDS011;4594;50.994;7.126;2022-12-24T01:19:34;16.87;;;3.57;;
9117;SDS011;4594;50.994;7.126;2022-12-24T01:22:00;12.87;;;3.20;;
9117;SDS011;4594;50.994;7.126;2022-12-24T01:24:26;14.03;;;4.00;;
9117;SDS011;4594;50.994;7.126;2022-12-24T01:26:52;15.17;;;3.87;;
9117;SDS011;4594;50.994;7.126;2022-12-24T01:29:17;9.00;;;3.30;;
9117;SDS011;4594;50.994;7.126;2022-12-24T01:31:43;11.97;;;3.30;;
9117;SDS011;4594;50.994;7.126;2022-12-24T01:34:09;14.87;;;3.80;;
9117;SDS011;4594;50.994;7.126;2022-12-24T01:36:35;16.30;;;3.63;;
9117;SDS011;4594;50.994;7.126;2022-12-24T01:39:01;12.37;;;3.83;;
9117;SDS011;4594;50.994;7.126;2022-12-24T01:41:28;11.27;;;4.03;;
9117;SDS011;4594;50.994;7.126;2022-12-24T01:44:19;11.73;;;3.20;;
9117;SDS011;4594;50.994;7.126;2022-12-24T01:46:50;10.60;;;3.43;;
9117;SDS011;4594;50.994;7.126;2022-12-24T01:49:45;17.03;;;2.97;;
9117;SDS011;4594;50.994;7.126;2022-12-24T01:52:17;14.10;;;2.93;;
9117;SDS011;4594;50.994;7.126;2022-12-24T01:54:52;12.27;;;4.10;;
9117;SDS011;4594;50.994;7.126;2022-12-24T01:57:26;11.07;;;3.17;;
9117;SDS011;4594;50.994;7.126;2022-12-24T01:59:59;10.13;;;3.27;;
9117;SDS011;4594;50.994;7.126;2022-12-24T02:02:32;18.10;;;3.43;;
9117;SDS011;4594;50.994;7.126;2022-12-24T02:08:06;10.30;;;3.03;;
9117;SDS011;4594;50.994;7.126;2022-12-24T02:10:32;18.50;;;3.50;;
9117;SDS011;4594;50.994;7.126;2022-12-24T02:12:58;14.47;;;3.40;;
9117;SDS011;4594;50.994;7.126;2022-12-24T02:15:27;13.10;;;4.07;;
9117;SDS011;4594;50.994;7.126;2022-12-24T02:18:28;15.07;;;3.80;;
9117;SDS011;4594;50.994;7.126;2022-12-24T02:24:21;10.60;;;3.17;;
9117;SDS011;4594;50.994;7.126;2022-12-24T02:27:16;12.93;;;2.93;;
9117;SDS011;4594;50.994;7.126;2022-12-24T02:30:03;8.23;;;3.20;;
9117;SDS011;4594;50.994;7.126;2022-12-24T02:36:03;13.27;;;3.13;;
9117;SDS011;4594;50.994;7.126;2022-12-24T02:41:30;11.20;;;3.83;;
9117;SDS011;4594;50.994;7.126;2022-12-24T02:44:23;18.43;;;3.40;;
9117;SDS011;4594;50.994;7.126;2022-12-24T02:46:52;5.90;;;2.90;;
9117;SDS011;4594;50.994;7.126;2022-12-24T02:49:21;16.23;;;3.70;;
9117;SDS011;4594;50.994;7.126;2022-12-24T02:51:47;17.13;;;3.70;;
9117;SDS011;4594;50.994;7.126;2022-12-24T02:54:13;9.97;;;3.50;;
9117;SDS011;4594;50.994;7.126;2022-12-24T03:11:13;15.00;;;3.40;;
9117;SDS011;4594;50.994;7.126;2022-12-24T03:13:39;12.43;;;4.17;;
9117;SDS011;4594;50.994;7.126;2022-12-24T03:16:10;9.00;;;2.90;;
9117;SDS011;4594;50.994;7.126;2022-12-24T03:18:44;19.33;;;3.77;;
9117;SDS011;4594;50.994;7.126;2022-12-24T03:21:15;17.83;;;3.27;;
9117;SDS011;4594;50.994;7.126;2022-12-24T03:23:56;14.63;;;3.73;;
9117;SDS011;4594;50.994;7.126;2022-12-24T03:26:22;18.97;;;4.27;;
9117;SDS011;4594;50.994;7.126;2022-12-24T03:28:52;12.30;;;3.57;;
9117;SDS011;4594;50.994;7.126;2022-12-24T03:31:18;10.53;;;3.10;;
9117;SDS011;4594;50.994;7.126;2022-12-24T03:33:44;16.73;;;3.40;;
9117;SDS011;4594;50.994;7.126;2022-12-24T03:36:11;11.20;;;3.43;;
9117;SDS011;4594;50.994;7.126;2022-12-24T03:38:37;16.00;;;3.40;;
9117;SDS011;4594;50.994;7.126;2022-12-24T03:41:03;8.00;;;3.10;;
9117;SDS011;4594;50.994;7.126;2022-12-24T03:43:30;9.60;;;3.17;;
9117;SDS011;4594;50.994;7.126;2022-12-24T03:45:56;6.13;;;3.03;;
9117;SDS011;4594;50.994;7.126;2022-12-24T03:48:22;5.33;;;2.77;;
9117;SDS011;4594;50.994;7.126;2022-12-24T03:50:48;11.73;;;3.10;;
9117;SDS011;4594;50.994;7.126;2022-12-24T03:53:13;9.37;;;2.90;;
9117;SDS011;4594;50.994;7.126;2022-12-24T03:55:39;6.60;;;3.07;;
9117;SDS011;4594;50.994;7.126;2022-12-24T03:58:05;8.33;;;2.80;;
9117;SDS011;4594;50.994;7.126;2022-12-24T04:00:30;4.37;;;2.20;;
9117;SDS011;4594;50.994;7.126;2022-12-24T04:02:56;6.47;;;2.33;;
9117;SDS011;4594;50.994;7.126;2022-12-24T04:05:22;6.93;;;2.80;;
9117;SDS011;4594;50.994;7.126;2022-12-24T04:07:47;4.83;;;2.77;;
9117;SDS011;4594;50.994;7.126;2022-12-24T04:10:14;11.53;;;2.27;;
9117;SDS011;4594;50.994;7.126;2022-12-24T04:12:41;4.47;;;2.20;;
9117;SDS011;4594;50.994;7.126;2022-12-24T04:15:07;10.67;;;2.67;;
9117;SDS011;4594;50.994;7.126;2022-12-24T04:17:33;4.00;;;1.93;;
9117;SDS011;4594;50.994;7.126;2022-12-24T04:19:59;6.20;;;2.53;;
9117;SDS011;4594;50.994;7.126;2022-12-24T04:22:24;11.97;;;2.67;;
9117;SDS011;4594;50.994;7.126;2022-12-24T04:24:50;7.20;;;2.50;;
9117;SDS011;4594;50.994;7.126;2022-12-24T04:27:16;3.87;;;1.90;;
9117;SDS011;4594;50.994;7.126;2022-12-24T04:29:42;6.40;;;2.43;;
9117;SDS011;4594;50.994;7.126;2022-12-24T04:32:08;3.30;;;2.20;;
9117;SDS011;4594;50.994;7.126;2022-12-24T04:34:34;2.83;;;2.13;;
9117;SDS011;4594;50.994;7.126;2022-12-24T04:37:00;4.43;;;2.30;;
9117;SDS011;4594;50.994;7.126;2022-12-24T04:39:27;4.13;;;2.50;;
9117;SDS011;4594;50.994;7.126;2022-12-24T04:41:52;3.00;;;1.97;;
9117;SDS011;4594;50.994;7.126;2022-12-24T04:44:18;4.10;;;2.30;;
9117;SDS011;4594;50.994;7.126;2022-12-24T04:46:44;6.80;;;2.27;;
9117;SDS011;4594;50.994;7.126;2022-12-24T04:49:09;5.43;;;2.70;;
9117;SDS011;4594;50.994;7.126;2022-12-24T04:51:35;2.83;;;1.90;;
9117;SDS011;4594;50.994;7.126;2022-12-24T04:54:01;2.43;;;2.00;;
9117;SDS011;4594;50.994;7.126;2022-12-24T04:56:28;4.37;;;2.63;;
9117;SDS011;4594;50.994;7.126;2022-12-24T04:58:57;4.90;;;2.10;;
9117;SDS011;4594;50.994;7.126;2022-12-24T05:01:28;2.07;;;1.63;;
9117;SDS011;4594;50.994;7.126;2022-12-24T05:03:56;3.10;;;2.10;;
9117;SDS011;4594;50.994;7.126;2022-12-24T05:06:24;2.93;;;2.17;;
9117;SDS011;4594;50.994;7.126;2022-12-24T05:08:56;3.97;;;2.00;;
9117;SDS011;4594;50.994;7.126;2022-12-24T05:11:23;2.97;;;2.20;;
9117;SDS011;4594;50.994;7.126;2022-12-24T05:13:49;3.33;;;2.03;;
9117;SDS011;4594;50.994;7.126;2022-12-24T05:16:16;7.27;;;2.13;;
9117;SDS011;4594;50.994;7.126;2022-12-24T05:18:44;3.97;;;2.23;;
9117;SDS011;4594;50.994;7.126;2022-12-24T05:21:11;4.47;;;2.37;;
9117;SDS011;4594;50.994;7.126;2022-12-24T05:23:41;7.97;;;3.30;;
9117;SDS011;4594;50.994;7.126;2022-12-24T05:26:27;4.93;;;2.57;;
9117;SDS011;4594;50.994;7.126;2022-12-24T05:28:56;6.70;;;2.23;;
9117;SDS011;4594;50.994;7.126;2022-12-24T05:31:24;4.57;;;2.13;;
9117;SDS011;4594;50.994;7.126;2022-12-24T05:33:52;3.33;;;2.43;;
9117;SDS011;4594;50.994;7.126;2022-12-24T05:36:19;4.80;;;2.13;;
9117;SDS011;4594;50.994;7.126;2022-12-24T05:38:45;3.07;;;2.33;;
9117;SDS011;4594;50.994;7.126;2022-12-24T05:41:10;5.27;;;2.07;;
9117;SDS011;4594;50.994;7.126;2022-12-24T05:43:36;8.17;;;2.40;;
9117;SDS011;4594;50.994;7.126;2022-12-24T05:46:04;9.77;;;2.43;;
9117;SDS011;4594;50.994;7.126;2022-12-24T05:48:33;4.40;;;2.13;;
9117;SDS011;4594;50.994;7.126;2022-12-24T05:51:02;2.53;;;1.80;;
9117;SDS011;4594;50.994;7.126;2022-12-24T05:53:30;3.77;;;1.77;;
9117;SDS011;4594;50.994;7.126;2022-12-24T05:56:10;3.87;;;1.93;;
9117;SDS011;4594;50.994;7.126;2022-12-24T05:58:39;1.83;;;1.70;;
9117;SDS011;4594;50.994;7.126;2022-12-24T06:01:07;5.57;;;2.20;;
9117;SDS011;4594;50.994;7.126;2022-12-24T06:03:34;9.03;;;2.80;;
9117;SDS011;4594;50.994;7.126;2022-12-24T06:06:02;5.57;;;2.07;;
9117;SDS011;4594;50.994;7.126;2022-12-24T06:08:32;5.57;;;2.80;;
9117;SDS011;4594;50.994;7.126;2022-12-24T06:10:59;6.13;;;2.20;;
9117;SDS011;4594;50.994;7.126;2022-12-24T06:13:29;3.13;;;2.10;;
9117;SDS011;4594;50.994;7.126;2022-12-24T06:15:56;4.17;;;2.23;;
9117;SDS011;4594;50.994;7.126;2022-12-24T06:18:23;2.97;;;2.00;;
9117;SDS011;4594;50.994;7.126;2022-12-24T06:20:53;4.57;;;2.30;;
9117;SDS011;4594;50.994;7.126;2022-12-24T06:23:21;3.97;;;2.33;;
9117;SDS011;4594;50.994;7.126;2022-12-24T06:25:48;4.37;;;2.10;;
9117;SDS011;4594;50.994;7.126;2022-12-24T06:28:15;3.93;;;2.00;;
9117;SDS011;4594;50.994;7.126;2022-12-24T06:30:46;3.60;;;1.90;;
9117;SDS011;4594;50.994;7.126;2022-12-24T06:33:14;2.67;;;2.00;;
9117;SDS011;4594;50.994;7.126;2022-12-24T06:35:40;2.57;;;1.87;;
9117;SDS011;4594;50.994;7.126;2022-12-24T06:38:08;4.47;;;1.90;;
9117;SDS011;4594;50.994;7.126;2022-12-24T06:40:34;4.47;;;1.90;;
9117;SDS011;4594;50.994;7.126;2022-12-24T06:43:02;5.67;;;2.50;;
9117;SDS011;4594;50.994;7.126;2022-12-24T06:45:28;3.07;;;2.03;;
9117;SDS011;4594;50.994;7.126;2022-12-24T06:47:53;4.30;;;2.37;;
9117;SDS011;4594;50.994;7.126;2022-12-24T06:50:19;5.60;;;2.47;;
9117;SDS011;4594;50.994;7.126;2022-12-24T06:52:44;2.63;;;2.20;;
9117;SDS011;4594;50.994;7.126;2022-12-24T06:55:11;5.17;;;2.40;;
9117;SDS011;4594;50.994;7.126;2022-12-24T06:57:36;3.43;;;2.20;;
9117;SDS011;4594;50.994;7.126;2022-12-24T07:00:02;4.90;;;2.30;;
9117;SDS011;4594;50.994;7.126;2022-12-24T07:02:31;7.67;;;2.67;;
9117;SDS011;4594;50.994;7.126;2022-12-24T07:04:57;6.07;;;2.70;;
9117;SDS011;4594;50.994;7.126;2022-12-24T07:07:22;7.77;;;2.53;;
9117;SDS011;4594;50.994;7.126;2022-12-24T07:09:48;7.53;;;2.40;;
9117;SDS011;4594;50.994;7.126;2022-12-24T07:12:14;4.00;;;2.37;;
9117;SDS011;4594;50.994;7.126;2022-12-24T07:14:39;5.87;;;2.53;;
9117;SDS011;4594;50.994;7.126;2022-12-24T07:17:05;4.97;;;2.20;;
9117;SDS011;4594;50.994;7.126;2022-12-24T07:19:31;6.83;;;2.73;;
9117;SDS011;4594;50.994;7.126;2022-12-24T07:21:58;5.23;;;2.50;;
9117;SDS011;4594;50.994;7.126;2022-12-24T07:24:24;11.50;;;2.70;;
9117;SDS011;4594;50.994;7.126;2022-12-24T07:26:49;6.10;;;2.63;;
9117;SDS011;4594;50.994;7.126;2022-12-24T07:29:15;8.67;;;2.80;;
9117;SDS011;4594;50.994;7.126;2022-12-24T07:31:41;7.20;;;2.70;;
9117;SDS011;4594;50.994;7.126;2022-12-24T07:34:06;6.80;;;3.20;;
9117;SDS011;4594;50.994;7.126;2022-12-24T07:36:32;3.67;;;2.60;;
9117;SDS011;4594;50.994;7.126;2022-12-24T07:38:58;6.03;;;2.77;;
9117;SDS011;4594;50.994;7.126;2022-12-24T07:41:23;6.70;;;2.47;;
9117;SDS011;4594;50.994;7.126;2022-12-24T07:43:49;6.83;;;3.27;;
9117;SDS011;4594;50.994;7.126;2022-12-24T07:46:15;11.73;;;3.30;;
9117;SDS011;4594;50.994;7.126;2022-12-24T07:48:40;5.83;;;3.00;;
9117;SDS011;4594;50.994;7.126;2022-12-24T07:51:06;13.57;;;4.07;;
9117;SDS011;4594;50.994;7.126;2022-12-24T07:53:32;12.63;;;4.00;;
9117;SDS011;4594;50.994;7.126;2022-12-24T07:55:58;11.90;;;3.53;;
9117;SDS011;4594;50.994;7.126;2022-12-24T07:58:24;11.93;;;4.57;;
9117;SDS011;4594;50.994;7.126;2022-12-24T08:00:59;11.93;;;4.13;;
9117;SDS011;4594;50.994;7.126;2022-12-24T08:03:25;11.70;;;4.83;;
9117;SDS011;4594;50.994;7.126;2022-12-24T08:05:50;13.87;;;5.00;;
9117;SDS011;4594;50.994;7.126;2022-12-24T08:08:16;11.33;;;4.80;;
9117;SDS011;4594;50.994;7.126;2022-12-24T08:10:43;7.77;;;4.10;;
9117;SDS011;4594;50.994;7.126;2022-12-24T08:13:10;14.13;;;4.43;;
9117;SDS011;4594;50.994;7.126;2022-12-24T08:15:37;14.03;;;3.73;;
9117;SDS011;4594;50.994;7.126;2022-12-24T08:18:02;9.40;;;3.57;;
9117;SDS011;4594;50.994;7.126;2022-12-24T08:20:28;10.33;;;3.30;;
9117;SDS011;4594;50.994;7.126;2022-12-24T08:22:54;7.03;;;3.43;;
9117;SDS011;4594;50.994;7.126;2022-12-24T08:25:19;9.97;;;3.80;;
9117;SDS011;4594;50.994;7.126;2022-12-24T08:27:45;6.67;;;3.20;;
9117;SDS011;4594;50.994;7.126;2022-12-24T08:30:12;5.53;;;3.00;;
9117;SDS011;4594;50.994;7.126;2022-12-24T08:32:38;12.00;;;3.10;;
9117;SDS011;4594;50.994;7.126;2022-12-24T08:35:04;11.37;;;4.27;;
9117;SDS011;4594;50.994;7.126;2022-12-24T08:37:30;11.00;;;3.17;;
9117;SDS011;4594;50.994;7.126;2022-12-24T08:39:56;13.43;;;3.97;;
9117;SDS011;4594;50.994;7.126;2022-12-24T08:42:22;11.00;;;3.37;;
9117;SDS011;4594;50.994;7.126;2022-12-24T08:44:47;10.73;;;3.07;;
9117;SDS011;4594;50.994;7.126;2022-12-24T08:47:13;12.97;;;3.57;;
9117;SDS011;4594;50.994;7.126;2022-12-24T08:49:39;13.67;;;4.37;;
9117;SDS011;4594;50.994;7.126;2022-12-24T08:52:05;8.27;;;3.10;;
9117;SDS011;4594;50.994;7.126;2022-12-24T08:54:31;8.27;;;3.43;;
9117;SDS011;4594;50.994;7.126;2022-12-24T08:56:56;14.87;;;4.10;;
9117;SDS011;4594;50.994;7.126;2022-12-24T08:59:22;11.87;;;3.70;;
9117;SDS011;4594;50.994;7.126;2022-12-24T09:01:48;12.70;;;3.97;;
9117;SDS011;4594;50.994;7.126;2022-12-24T09:04:14;7.33;;;3.30;;
9117;SDS011;4594;50.994;7.126;2022-12-24T09:06:39;10.17;;;3.47;;
9117;SDS011;4594;50.994;7.126;2022-12-24T09:09:05;13.07;;;4.07;;
9117;SDS011;4594;50.994;7.126;2022-12-24T09:11:32;9.57;;;3.83;;
9117;SDS011;4594;50.994;7.126;2022-12-24T09:13:59;7.17;;;3.30;;
9117;SDS011;4594;50.994;7.126;2022-12-24T09:16:25;10.93;;;3.57;;
9117;SDS011;4594;50.994;7.126;2022-12-24T09:18:51;8.20;;;3.17;;
9117;SDS011;4594;50.994;7.126;2022-12-24T09:21:17;11.80;;;4.07;;
9117;SDS011;4594;50.994;7.126;2022-12-24T09:23:43;23.00;;;4.00;;
9117;SDS011;4594;50.994;7.126;2022-12-24T09:26:18;12.13;;;3.50;;
9117;SDS011;4594;50.994;7.126;2022-12-24T09:28:50;13.30;;;4.67;;
9117;SDS011;4594;50.994;7.126;2022-12-24T09:31:16;12.50;;;4.00;;
9117;SDS011;4594;50.994;7.126;2022-12-24T09:33:46;12.33;;;3.70;;
9117;SDS011;4594;50.994;7.126;2022-12-24T09:36:13;12.30;;;3.50;;
9117;SDS011;4594;50.994;7.126;2022-12-24T09:38:39;12.00;;;4.00;;
9117;SDS011;4594;50.994;7.126;2022-12-24T09:41:13;12.07;;;3.63;;
9117;SDS011;4594;50.994;7.126;2022-12-24T09:44:20;11.67;;;3.47;;
9117;SDS011;4594;50.994;7.126;2022-12-24T09:47:16;11.40;;;3.87;;
9117;SDS011;4594;50.994;7.126;2022-12-24T09:50:02;7.93;;;3.47;;
9117;SDS011;4594;50.994;7.126;2022-12-24T09:52:48;11.37;;;3.37;;
9117;SDS011;4594;50.994;7.126;2022-12-24T09:55:27;15.10;;;4.10;;
9117;SDS011;4594;50.994;7.126;2022-12-24T09:57:58;12.60;;;3.83;;
9117;SDS011;4594;50.994;7.126;2022-12-24T10:00:29;12.47;;;4.00;;
9117;SDS011;4594;50.994;7.126;2022-12-24T10:03:00;15.77;;;3.60;;
9117;SDS011;4594;50.994;7.126;2022-12-24T10:05:41;12.20;;;3.50;;
9117;SDS011;4594;50.994;7.126;2022-12-24T10:08:19;13.20;;;4.37;;
9117;SDS011;4594;50.994;7.126;2022-12-24T10:11:06;13.47;;;4.40;;
9117;SDS011;4594;50.994;7.126;2022-12-24T10:16:39;13.17;;;3.77;;
9117;SDS011;4594;50.994;7.126;2022-12-24T10:22:58;20.23;;;4.10;;
9117;SDS011;4594;50.994;7.126;2022-12-24T10:26:03;8.93;;;3.30;;
9117;SDS011;4594;50.994;7.126;2022-12-24T10:28:44;12.23;;;3.87;;
9117;SDS011;4594;50.994;7.126;2022-12-24T10:31:16;11.47;;;3.40;;
9117;SDS011;4594;50.994;7.126;2022-12-24T10:33:49;13.03;;;4.20;;
9117;SDS011;4594;50.994;7.126;2022-12-24T10:36:27;18.93;;;4.23;;
9117;SDS011;4594;50.994;7.126;2022-12-24T10:38:54;17.53;;;4.73;;
9117;SDS011;4594;50.994;7.126;2022-12-24T10:41:21;17.40;;;4.13;;
9117;SDS011;4594;50.994;7.126;2022-12-24T10:43:50;14.07;;;4.10;;
9117;SDS011;4594;50.994;7.126;2022-12-24T10:46:18;15.60;;;4.20;;
9117;SDS011;4594;50.994;7.126;2022-12-24T10:49:06;14.23;;;4.13;;
9117;SDS011;4594;50.994;7.126;2022-12-24T10:51:48;11.67;;;3.80;;
9117;SDS011;4594;50.994;7.126;2022-12-24T10:54:20;12.60;;;4.10;;
9117;SDS011;4594;50.994;7.126;2022-12-24T10:56:49;14.37;;;4.00;;
9117;SDS011;4594;50.994;7.126;2022-12-24T10:59:54;11.77;;;4.00;;
9117;SDS011;4594;50.994;7.126;2022-12-24T11:02:28;7.73;;;3.20;;
9117;SDS011;4594;50.994;7.126;2022-12-24T11:04:58;21.30;;;4.33;;
9117;SDS011;4594;50.994;7.126;2022-12-24T11:07:26;12.27;;;3.87;;
9117;SDS011;4594;50.994;7.126;2022-12-24T11:10:02;18.73;;;4.37;;
9117;SDS011;4594;50.994;7.126;2022-12-24T11:12:34;12.10;;;3.90;;
9117;SDS011;4594;50.994;7.126;2022-12-24T11:15:28;14.50;;;4.17;;
9117;SDS011;4594;50.994;7.126;2022-12-24T11:18:04;16.00;;;5.00;;
9117;SDS011;4594;50.994;7.126;2022-12-24T11:20:38;14.40;;;4.03;;
9117;SDS011;4594;50.994;7.126;2022-12-24T11:23:05;13.67;;;4.10;;
9117;SDS011;4594;50.994;7.126;2022-12-24T11:25:40;12.53;;;4.63;;
9117;SDS011;4594;50.994;7.126;2022-12-24T11:28:25;9.93;;;4.20;;
9117;SDS011;4594;50.994;7.126;2022-12-24T11:30:55;13.37;;;3.63;;
9117;SDS011;4594;50.994;7.126;2022-12-24T11:33:29;11.80;;;4.10;;
9117;SDS011;4594;50.994;7.126;2022-12-24T11:35:59;11.77;;;4.33;;
9117;SDS011;4594;50.994;7.126;2022-12-24T11:38:29;12.47;;;3.47;;
9117;SDS011;4594;50.994;7.126;2022-12-24T11:40:59;22.13;;;3.87;;
9117;SDS011;4594;50.994;7.126;2022-12-24T11:43:33;13.97;;;4.50;;
9117;SDS011;4594;50.994;7.126;2022-12-24T11:46:18;20.03;;;4.13;;
9117;SDS011;4594;50.994;7.126;2022-12-24T11:49:04;9.73;;;3.87;;
9117;SDS011;4594;50.994;7.126;2022-12-24T11:51:37;15.13;;;4.07;;
9117;SDS011;4594;50.994;7.126;2022-12-24T11:54:33;13.73;;;4.20;;
9117;SDS011;4594;50.994;7.126;2022-12-24T11:57:23;13.53;;;4.00;;
9117;SDS011;4594;50.994;7.126;2022-12-24T11:59:58;20.33;;;4.70;;
9117;SDS011;4594;50.994;7.126;2022-12-24T12:04:56;10.50;;;3.73;;
9117;SDS011;4594;50.994;7.126;2022-12-24T12:07:44;11.10;;;3.87;;
9117;SDS011;4594;50.994;7.126;2022-12-24T12:10:16;9.77;;;3.97;;
9117;SDS011;4594;50.994;7.126;2022-12-24T12:12:46;14.17;;;4.20;;
9117;SDS011;4594;50.994;7.126;2022-12-24T12:15:24;13.83;;;3.90;;
9117;SDS011;4594;50.994;7.126;2022-12-24T12:20:47;11.80;;;3.40;;
9117;SDS011;4594;50.994;7.126;2022-12-24T12:23:29;9.47;;;3.53;;
9117;SDS011;4594;50.994;7.126;2022-12-24T12:29:03;16.10;;;4.30;;
9117;SDS011;4594;50.994;7.126;2022-12-24T12:31:35;17.80;;;4.00;;
9117;SDS011;4594;50.994;7.126;2022-12-24T12:34:11;12.77;;;3.93;;
9117;SDS011;4594;50.994;7.126;2022-12-24T12:39:56;13.43;;;3.97;;
9117;SDS011;4594;50.994;7.126;2022-12-24T12:45:15;10.40;;;3.57;;
9117;SDS011;4594;50.994;7.126;2022-12-24T12:51:07;14.77;;;4.07;;
9117;SDS011;4594;50.994;7.126;2022-12-24T12:54:01;9.77;;;3.77;;
9117;SDS011;4594;50.994;7.126;2022-12-24T12:56:33;17.60;;;3.97;;
9117;SDS011;4594;50.994;7.126;2022-12-24T12:59:08;13.53;;;4.37;;
9117;SDS011;4594;50.994;7.126;2022-12-24T13:01:49;14.17;;;4.43;;
9117;SDS011;4594;50.994;7.126;2022-12-24T13:08:01;11.63;;;3.90;;
9117;SDS011;4594;50.994;7.126;2022-12-24T13:21:03;14.97;;;4.13;;
9117;SDS011;4594;50.994;7.126;2022-12-24T13:23:37;10.63;;;3.67;;
9117;SDS011;4594;50.994;7.126;2022-12-24T13:26:06;14.57;;;3.47;;
9117;SDS011;4594;50.994;7.126;2022-12-24T13:28:37;13.77;;;3.77;;
9117;SDS011;4594;50.994;7.126;2022-12-24T13:36:12;16.27;;;4.30;;
9117;SDS011;4594;50.994;7.126;2022-12-24T13:49:35;8.37;;;3.30;;
9117;SDS011;4594;50.994;7.126;2022-12-24T13:54:37;10.03;;;3.70;;
9117;SDS011;4594;50.994;7.126;2022-12-24T13:59:59;19.27;;;4.00;;
9117;SDS011;4594;50.994;7.126;2022-12-24T14:02:31;8.33;;;3.73;;
9117;SDS011;4594;50.994;7.126;2022-12-24T14:05:04;18.43;;;3.93;;
9117;SDS011;4594;50.994;7.126;2022-12-24T14:07:45;10.80;;;3.77;;
9117;SDS011;4594;50.994;7.126;2022-12-24T14:10:18;9.73;;;3.50;;
9117;SDS011;4594;50.994;7.126;2022-12-24T14:12:52;12.33;;;4.10;;
9117;SDS011;4594;50.994;7.126;2022-12-24T14:18:18;16.07;;;3.70;;
9117;SDS011;4594;50.994;7.126;2022-12-24T14:20:52;12.17;;;3.73;;
9117;SDS011;4594;50.994;7.126;2022-12-24T14:23:26;7.23;;;3.03;;
9117;SDS011;4594;50.994;7.126;2022-12-24T14:26:07;10.67;;;3.57;;
9117;SDS011;4594;50.994;7.126;2022-12-24T14:28:57;11.80;;;2.97;;
9117;SDS011;4594;50.994;7.126;2022-12-24T14:31:30;19.40;;;3.87;;
9117;SDS011;4594;50.994;7.126;2022-12-24T14:34:11;9.13;;;3.47;;
9117;SDS011;4594;50.994;7.126;2022-12-24T14:36:37;8.77;;;3.67;;
9117;SDS011;4594;50.994;7.126;2022-12-24T14:39:07;8.63;;;2.77;;
9117;SDS011;4594;50.994;7.126;2022-12-24T14:41:52;10.10;;;3.50;;
9117;SDS011;4594;50.994;7.126;2022-12-24T14:47:29;9.50;;;3.27;;
9117;SDS011;4594;50.994;7.126;2022-12-24T14:55:58;12.33;;;3.53;;
9117;SDS011;4594;50.994;7.126;2022-12-24T14:58:37;9.17;;;3.60;;
9117;SDS011;4594;50.994;7.126;2022-12-24T15:01:22;13.77;;;3.40;;
9117;SDS011;4594;50.994;7.126;2022-12-24T15:06:38;7.80;;;3.60;;
9117;SDS011;4594;50.994;7.126;2022-12-24T15:09:18;18.57;;;3.87;;
9117;SDS011;4594;50.994;7.126;2022-12-24T15:11:48;15.50;;;3.50;;
9117;SDS011;4594;50.994;7.126;2022-12-24T15:14:19;17.00;;;3.57;;
9117;SDS011;4594;50.994;7.126;2022-12-24T15:16:55;10.00;;;3.70;;
9117;SDS011;4594;50.994;7.126;2022-12-24T15:19:31;10.80;;;3.27;;
9117;SDS011;4594;50.994;7.126;2022-12-24T15:22:01;15.53;;;3.87;;
9117;SDS011;4594;50.994;7.126;2022-12-24T15:24:34;10.33;;;3.67;;
9117;SDS011;4594;50.994;7.126;2022-12-24T15:27:15;11.93;;;3.43;;
9117;SDS011;4594;50.994;7.126;2022-12-24T15:29:49;7.10;;;3.40;;
9117;SDS011;4594;50.994;7.126;2022-12-24T15:32:19;9.97;;;3.87;;
9117;SDS011;4594;50.994;7.126;2022-12-24T15:34:47;17.27;;;4.47;;
9117;SDS011;4594;50.994;7.126;2022-12-24T15:39:52;11.17;;;3.17;;
9117;SDS011;4594;50.994;7.126;2022-12-24T15:42:19;14.23;;;3.33;;
9117;SDS011;4594;50.994;7.126;2022-12-24T15:47:44;9.47;;;3.20;;
9117;SDS011;4594;50.994;7.126;2022-12-24T15:50:23;10.40;;;3.67;;
9117;SDS011;4594;50.994;7.126;2022-12-24T15:56:02;9.27;;;3.60;;
9117;SDS011;4594;50.994;7.126;2022-12-24T15:58:38;12.60;;;4.03;;
9117;SDS011;4594;50.994;7.126;2022-12-24T16:03:53;9.50;;;3.30;;
9117;SDS011;4594;50.994;7.126;2022-12-24T16:06:23;10.67;;;3.40;;
9117;SDS011;4594;50.994;7.126;2022-12-24T16:08:49;21.47;;;3.70;;
9117;SDS011;4594;50.994;7.126;2022-12-24T16:11:20;12.93;;;4.20;;
9117;SDS011;4594;50.994;7.126;2022-12-24T16:16:30;8.60;;;3.77;;
9117;SDS011;4594;50.994;7.126;2022-12-24T16:19:00;8.87;;;3.67;;
9117;SDS011;4594;50.994;7.126;2022-12-24T16:21:34;10.27;;;4.87;;
9117;SDS011;4594;50.994;7.126;2022-12-24T16:24:21;11.70;;;4.60;;
9117;SDS011;4594;50.994;7.126;2022-12-24T16:26:51;12.50;;;5.33;;
9117;SDS011;4594;50.994;7.126;2022-12-24T16:29:18;12.00;;;5.03;;
9117;SDS011;4594;50.994;7.126;2022-12-24T16:31:54;15.40;;;5.13;;
9117;SDS011;4594;50.994;7.126;2022-12-24T16:34:25;17.30;;;6.33;;
9117;SDS011;4594;50.994;7.126;2022-12-24T16:36:54;27.10;;;9.00;;
9117;SDS011;4594;50.994;7.126;2022-12-24T16:39:22;19.60;;;8.10;;
9117;SDS011;4594;50.994;7.126;2022-12-24T16:41:55;17.60;;;7.67;;
9117;SDS011;4594;50.994;7.126;2022-12-24T16:44:41;15.37;;;6.67;;
9117;SDS011;4594;50.994;7.126;2022-12-24T16:47:09;16.63;;;6.47;;
9117;SDS011;4594;50.994;7.126;2022-12-24T16:49:52;14.90;;;6.83;;
9117;SDS011;4594;50.994;7.126;2022-12-24T16:52:22;18.63;;;6.73;;
9117;SDS011;4594;50.994;7.126;2022-12-24T16:54:52;18.50;;;6.33;;
9117;SDS011;4594;50.994;7.126;2022-12-24T16:57:22;18.00;;;7.77;;
9117;SDS011;4594;50.994;7.126;2022-12-24T16:59:48;20.83;;;8.40;;
9117;SDS011;4594;50.994;7.126;2022-12-24T17:02:16;19.83;;;8.40;;
9117;SDS011;4594;50.994;7.126;2022-12-24T17:04:44;16.67;;;7.30;;
9117;SDS011;4594;50.994;7.126;2022-12-24T17:07:10;18.10;;;7.23;;
9117;SDS011;4594;50.994;7.126;2022-12-24T17:09:38;16.93;;;7.27;;
9117;SDS011;4594;50.994;7.126;2022-12-24T17:12:04;15.50;;;7.03;;
9117;SDS011;4594;50.994;7.126;2022-12-24T17:14:31;16.23;;;7.43;;
9117;SDS011;4594;50.994;7.126;2022-12-24T17:16:57;17.20;;;7.07;;
9117;SDS011;4594;50.994;7.126;2022-12-24T17:19:22;15.13;;;6.60;;
9117;SDS011;4594;50.994;7.126;2022-12-24T17:21:48;22.07;;;7.77;;
9117;SDS011;4594;50.994;7.126;2022-12-24T17:24:14;15.77;;;6.33;;